createdAt,value
2023-05-09T05:01:10.123Z,100.00
2023-05-09T05:03:37.269Z,100.00
2023-05-09T05:06:06.574Z,100.00
2023-05-09T05:08:35.658Z,100.00
2023-05-09T05:11:02.494Z,100.00
2023-05-09T05:13:30.282Z,100.00
2023-05-09T05:16:08.299Z,100.00
2023-05-09T05:18:44.266Z,100.00
2023-05-09T05:21:11.248Z,100.00
2023-05-09T05:23:44.826Z,100.00
2023-05-09T05:26:21.718Z,100.00
2023-05-09T05:29:00.642Z,100.00
2023-05-09T05:31:32.292Z,100.00
2023-05-09T05:33:59.866Z,100.00
2023-05-09T05:36:33.799Z,100.00
2023-05-09T05:39:13.866Z,100.00
2023-05-09T05:42:14.907Z,100.00
2023-05-09T05:44:45.794Z,100.00
2023-05-09T05:47:20.984Z,100.00
2023-05-09T05:49:59.837Z,100.00
2023-05-09T05:52:37.013Z,100.00
2023-05-09T05:55:11.681Z,100.00
2023-05-09T05:57:53.687Z,100.00
2023-05-09T06:00:31.177Z,100.00
2023-05-09T06:03:17.178Z,100.00
2023-05-09T06:05:52.641Z,100.00
2023-05-09T06:08:23.306Z,100.00
2023-05-09T06:10:53.419Z,100.00
2023-05-09T06:13:26.193Z,100.00
2023-05-09T06:16:07.836Z,100.00
2023-05-09T06:18:46.171Z,100.00
2023-05-09T06:21:16.407Z,100.00
2023-05-09T06:26:33.001Z,100.00
2023-05-09T06:29:09.264Z,100.00
2023-05-09T06:31:38.823Z,100.00
2023-05-09T06:34:11.776Z,100.00
2023-05-09T06:36:38.557Z,100.00
2023-05-09T06:39:09.256Z,100.00
2023-05-09T06:41:35.979Z,100.00
2023-05-09T06:44:03.264Z,100.00
2023-05-09T06:46:29.974Z,100.00
2023-05-09T06:48:57.267Z,100.00
2023-05-09T06:51:23.865Z,100.00
2023-05-09T06:53:51.332Z,100.00
2023-05-09T06:56:20.149Z,100.00
2023-05-09T06:58:47.622Z,100.00
2023-05-09T07:01:14.291Z,100.00
2023-05-09T07:03:42.824Z,100.00
2023-05-09T07:06:09.704Z,100.00
2023-05-09T07:08:36.929Z,100.00
2023-05-09T07:11:03.618Z,100.00
2023-05-09T07:13:30.793Z,100.00
2023-05-09T07:15:57.718Z,100.00
2023-05-09T07:18:24.858Z,100.00
2023-05-09T07:20:51.604Z,100.00
2023-05-09T07:23:18.900Z,100.00
2023-05-09T07:25:45.569Z,100.00
2023-05-09T07:28:13.069Z,100.00
2023-05-09T07:30:39.661Z,100.00
2023-05-09T07:33:08.081Z,100.00
2023-05-09T07:35:34.814Z,100.00
2023-05-09T07:38:02.185Z,100.00
2023-05-09T07:40:28.772Z,100.00
2023-05-09T07:42:57.085Z,100.00
2023-05-09T07:45:24.013Z,100.00
2023-05-09T07:47:51.475Z,100.00
2023-05-09T07:50:18.303Z,100.00
2023-05-09T07:52:45.715Z,100.00
2023-05-09T07:55:12.448Z,100.00
2023-05-09T07:57:40.278Z,100.00
2023-05-09T08:00:08.790Z,100.00
2023-05-09T08:02:40.375Z,100.00
2023-05-09T08:05:08.050Z,100.00
2023-05-09T08:07:35.994Z,100.00
2023-05-09T08:10:03.129Z,100.00
2023-05-09T08:12:30.391Z,100.00
2023-05-09T08:14:57.012Z,100.00
2023-05-09T08:17:24.198Z,100.00
2023-05-09T08:19:50.774Z,100.00
2023-05-09T08:22:22.383Z,100.00
2023-05-09T08:24:49.378Z,100.00
2023-05-09T08:27:19.003Z,100.00
2023-05-09T08:29:45.739Z,100.00
2023-05-09T08:32:17.128Z,100.00
2023-05-09T08:34:46.271Z,100.00
2023-05-09T08:37:15.245Z,100.00
2023-05-09T08:43:13.054Z,100.00
2023-05-09T08:46:12.539Z,100.00
2023-05-09T08:48:51.694Z,100.00
2023-05-09T08:51:21.669Z,100.00
2023-05-09T08:53:56.371Z,100.00
2023-05-09T08:56:26.675Z,100.00
2023-05-09T08:58:58.463Z,100.00
2023-05-09T09:01:26.928Z,100.00
2023-05-09T09:03:54.480Z,100.00
2023-05-09T09:06:23.655Z,100.00
2023-05-09T09:08:50.926Z,100.00
2023-05-09T09:11:18.921Z,100.00
2023-05-09T09:13:47.576Z,100.00
2023-05-09T09:16:20.863Z,100.00
2023-05-09T09:18:48.175Z,100.00
2023-05-09T09:21:19.181Z,100.00
2023-05-09T09:23:48.257Z,100.00
2023-05-09T09:26:15.590Z,100.00
2023-05-09T09:28:43.606Z,100.00
2023-05-09T09:31:30.203Z,100.00
2023-05-09T09:34:02.136Z,100.00
2023-05-09T09:36:36.724Z,100.00
2023-05-09T09:39:05.807Z,100.00
2023-05-09T09:41:39.487Z,100.00
2023-05-09T09:44:15.442Z,100.00
2023-05-09T09:46:53.451Z,100.00
2023-05-09T09:49:35.140Z,100.00
2023-05-09T09:52:08.343Z,100.00
2023-05-09T09:54:35.211Z,100.00
2023-05-09T09:57:03.079Z,100.00
2023-05-09T09:59:35.970Z,100.00
2023-05-09T10:04:56.663Z,100.00
2023-05-09T10:07:29.406Z,100.00
2023-05-09T10:10:08.761Z,100.00
2023-05-09T10:12:47.611Z,100.00
2023-05-09T10:15:18.986Z,100.00
2023-05-09T10:21:25.348Z,100.00
2023-05-09T10:23:58.501Z,100.00
2023-05-09T10:26:32.812Z,100.00
2023-05-09T10:29:15.073Z,100.00
2023-05-09T10:31:48.607Z,100.00
2023-05-09T10:34:19.536Z,100.00
2023-05-09T10:36:49.928Z,100.00
2023-05-09T10:39:28.208Z,100.00
2023-05-09T10:41:57.692Z,100.00
2023-05-09T10:44:25.593Z,100.00
2023-05-09T10:46:57.743Z,100.00
2023-05-09T10:49:29.640Z,100.00
2023-05-09T10:51:59.281Z,100.00
2023-05-09T10:54:35.759Z,100.00
2023-05-09T10:57:06.003Z,100.00
2023-05-09T10:59:38.646Z,100.00
2023-05-09T11:02:06.611Z,100.00
2023-05-09T11:04:33.374Z,100.00
2023-05-09T11:07:01.209Z,100.00
2023-05-09T11:09:37.917Z,100.00
2023-05-09T11:12:12.113Z,100.00
2023-05-09T11:14:46.731Z,100.00
2023-05-09T11:17:28.925Z,100.00
2023-05-09T11:20:00.903Z,100.00
2023-05-09T11:22:33.146Z,100.00
2023-05-09T11:25:07.363Z,100.00
2023-05-09T11:27:43.573Z,100.00
2023-05-09T11:30:20.883Z,100.00
2023-05-09T11:32:59.163Z,100.00
2023-05-09T11:35:28.601Z,100.00
2023-05-09T11:38:04.540Z,100.00
2023-05-09T11:40:32.440Z,100.00
2023-05-09T11:43:01.296Z,100.00
2023-05-09T11:45:32.346Z,100.00
2023-05-09T11:48:01.520Z,100.00
2023-05-09T11:50:28.556Z,100.00
2023-05-09T11:52:55.774Z,100.00
2023-05-09T11:55:22.800Z,100.00
2023-05-09T11:57:54.865Z,100.00
2023-05-09T12:00:23.910Z,100.00
2023-05-09T12:02:51.502Z,100.00
2023-05-09T12:05:20.220Z,100.00
2023-05-09T12:07:48.130Z,100.00
2023-05-09T12:10:25.429Z,100.00
2023-05-09T12:12:55.866Z,100.00
2023-05-09T12:15:23.219Z,100.00
2023-05-09T12:18:05.102Z,100.00
2023-05-09T12:20:47.220Z,100.00
2023-05-09T12:23:15.227Z,100.00
2023-05-09T12:26:07.080Z,100.00
2023-05-09T12:28:47.557Z,100.00
2023-05-09T12:31:15.228Z,100.00
2023-05-09T12:33:43.318Z,100.00
2023-05-09T12:36:12.657Z,100.00
2023-05-09T12:38:42.940Z,100.00
2023-05-09T12:41:22.310Z,100.00
2023-05-09T12:43:59.330Z,100.00
2023-05-09T12:46:26.174Z,98.86
2023-05-09T12:48:55.728Z,100.00
2023-05-09T12:51:23.579Z,100.00
2023-05-09T12:53:51.363Z,99.80
2023-05-09T12:56:20.430Z,100.00
2023-05-09T12:58:52.645Z,100.00
2023-05-09T13:01:21.369Z,100.00
2023-05-09T13:04:06.242Z,100.00
2023-05-09T13:06:34.743Z,100.00
2023-05-09T13:09:06.061Z,100.00
2023-05-09T13:11:33.252Z,100.00
2023-05-09T13:14:00.908Z,100.00
2023-05-09T13:16:27.670Z,100.00
2023-05-09T13:18:54.984Z,100.00
2023-05-09T13:21:21.812Z,100.00
2023-05-09T13:23:50.397Z,100.00
2023-05-09T13:26:17.253Z,100.00
2023-05-09T13:28:44.565Z,100.00
2023-05-09T13:31:11.461Z,99.38
2023-05-09T13:33:39.064Z,99.02
2023-05-09T13:36:06.645Z,98.55
2023-05-09T13:38:37.637Z,97.21
2023-05-09T13:41:04.793Z,99.61
2023-05-09T13:43:32.269Z,95.06
2023-05-09T13:45:58.952Z,96.63
2023-05-09T13:48:27.019Z,95.66
2023-05-09T13:50:54.057Z,95.09
2023-05-09T13:53:21.135Z,97.69
2023-05-09T13:55:48.485Z,96.95
2023-05-09T13:58:16.016Z,97.87
2023-05-09T14:00:43.029Z,97.22
2023-05-09T14:03:10.460Z,95.99
2023-05-09T14:05:37.352Z,96.78
2023-05-09T14:08:06.620Z,97.25
2023-05-09T14:10:33.216Z,98.23
2023-05-09T14:13:00.439Z,97.33
2023-05-09T14:15:27.414Z,97.49
2023-05-09T14:17:54.889Z,97.94
2023-05-09T14:20:34.740Z,96.09
2023-05-09T14:23:02.402Z,96.14
2023-05-09T14:25:29.451Z,96.66
2023-05-09T14:27:56.608Z,97.56
2023-05-09T14:30:25.079Z,99.60
2023-05-09T14:32:52.576Z,100.00
2023-05-09T14:35:19.289Z,98.76
2023-05-09T14:37:48.549Z,100.00
2023-05-09T14:40:16.161Z,100.00
2023-05-09T14:42:44.600Z,100.00
2023-05-09T14:45:12.764Z,99.40
2023-05-09T14:47:42.714Z,100.00
2023-05-09T14:50:15.926Z,100.00
2023-05-09T14:52:45.594Z,99.96
2023-05-09T14:55:12.857Z,100.00
2023-05-09T14:57:41.785Z,100.00
2023-05-09T15:00:20.218Z,100.00
2023-05-09T15:03:00.418Z,100.00
2023-05-09T15:05:28.174Z,100.00
2023-05-09T15:07:55.754Z,100.00
2023-05-09T15:10:22.906Z,100.00
2023-05-09T15:12:50.328Z,100.00
2023-05-09T15:15:19.569Z,100.00
2023-05-09T15:17:47.313Z,100.00
2023-05-09T15:20:18.267Z,100.00
2023-05-09T15:22:48.191Z,100.00
2023-05-09T15:25:15.071Z,100.00
2023-05-09T15:27:43.225Z,100.00
2023-05-09T15:30:15.763Z,100.00
2023-05-09T15:32:43.449Z,100.00
2023-05-09T15:35:10.682Z,100.00
2023-05-09T15:37:38.865Z,100.00
2023-05-09T15:40:07.061Z,100.00
2023-05-09T15:42:48.798Z,100.00
2023-05-09T15:45:16.685Z,100.00
2023-05-09T15:47:45.268Z,100.00
2023-05-09T15:50:13.350Z,100.00
2023-05-09T15:52:41.094Z,100.00
2023-05-09T15:55:14.582Z,100.00
2023-05-09T15:57:43.469Z,100.00
2023-05-09T16:00:12.694Z,100.00
2023-05-09T16:02:43.065Z,100.00
2023-05-09T16:08:18.130Z,100.00
2023-05-09T16:13:30.975Z,100.00
2023-05-09T16:15:58.834Z,100.00
2023-05-09T16:18:26.119Z,100.00
2023-05-09T16:20:52.840Z,100.00
2023-05-09T16:23:24.932Z,100.00
2023-05-09T16:28:33.511Z,100.00
2023-05-09T16:31:13.398Z,100.00
2023-05-09T16:36:26.257Z,100.00
2023-05-09T16:41:39.018Z,100.00
2023-05-09T16:44:05.690Z,100.00
2023-05-09T16:46:32.831Z,100.00
2023-05-09T16:48:59.759Z,100.00
2023-05-09T16:51:27.648Z,100.00
2023-05-09T16:56:36.938Z,100.00
2023-05-09T16:59:04.223Z,100.00
2023-05-09T17:01:31.728Z,100.00
2023-05-09T17:03:58.465Z,100.00
2023-05-09T17:06:26.780Z,100.00
2023-05-09T17:08:53.827Z,100.00
2023-05-09T17:11:22.360Z,100.00
2023-05-09T17:13:48.988Z,100.00
2023-05-09T17:16:16.315Z,100.00
2023-05-09T17:18:46.383Z,100.00
2023-05-09T17:21:18.267Z,100.00
2023-05-09T17:23:46.727Z,100.00
2023-05-09T17:26:32.321Z,100.00
2023-05-09T17:29:40.682Z,100.00
2023-05-09T17:32:57.924Z,100.00
2023-05-09T17:35:55.765Z,100.00
2023-05-09T17:38:23.858Z,100.00
2023-05-09T17:41:30.611Z,100.00
2023-05-09T17:44:12.438Z,100.00
2023-05-09T17:47:02.778Z,100.00
2023-05-09T17:49:41.074Z,100.00
2023-05-09T17:52:17.113Z,100.00
2023-05-09T17:55:11.998Z,100.00
2023-05-09T17:57:43.512Z,100.00
2023-05-09T18:00:16.615Z,100.00
2023-05-09T18:02:46.932Z,100.00
2023-05-09T18:11:04.172Z,100.00
2023-05-09T18:13:34.785Z,100.00
2023-05-09T18:16:08.821Z,100.00
2023-05-09T18:21:42.190Z,100.00
2023-05-09T18:24:09.392Z,100.00
2023-05-09T18:26:40.142Z,100.00
2023-05-09T18:29:09.361Z,100.00
2023-05-09T18:31:53.232Z,100.00
2023-05-09T18:34:25.489Z,100.00
2023-05-09T18:37:03.751Z,100.00
2023-05-09T18:39:30.942Z,100.00
2023-05-09T18:41:58.449Z,100.00
2023-05-09T18:44:28.090Z,100.00
2023-05-09T18:47:00.592Z,100.00
2023-05-09T18:49:29.642Z,100.00
2023-05-09T18:52:09.554Z,100.00
2023-05-09T18:57:47.062Z,100.00
2023-05-09T19:00:17.063Z,100.00
2023-05-09T19:02:47.834Z,100.00
2023-05-09T19:05:36.056Z,100.00
2023-05-09T19:08:21.618Z,100.00
2023-05-09T19:11:05.275Z,100.00
2023-05-09T19:13:48.947Z,100.00
2023-05-09T19:17:13.951Z,100.00
2023-05-09T19:19:41.624Z,100.00
2023-05-09T19:22:37.312Z,100.00
2023-05-09T19:25:31.311Z,100.00
2023-05-09T19:28:01.733Z,100.00
2023-05-09T19:30:41.492Z,100.00
2023-05-09T19:33:09.133Z,100.00
2023-05-09T19:35:37.672Z,100.00
2023-05-09T19:38:05.567Z,100.00
2023-05-09T19:40:51.000Z,100.00
2023-05-09T19:43:40.519Z,100.00
2023-05-09T19:46:20.851Z,100.00
2023-05-09T19:49:05.625Z,100.00
2023-05-09T19:51:45.412Z,100.00
2023-05-09T19:54:46.512Z,100.00
2023-05-09T19:57:45.476Z,100.00
2023-05-09T20:00:27.751Z,100.00
2023-05-09T20:03:02.155Z,100.00
2023-05-09T20:05:40.247Z,100.00
2023-05-09T20:08:35.111Z,100.00
2023-05-09T20:11:17.425Z,100.00
2023-05-09T20:14:05.756Z,100.00
2023-05-09T20:16:32.757Z,100.00
2023-05-09T20:18:59.357Z,100.00
2023-05-09T20:21:27.956Z,100.00
2023-05-09T20:23:54.526Z,100.00
2023-05-09T20:26:23.879Z,100.00
2023-05-09T20:28:54.354Z,100.00
